Black Point Port Essington, Australia
Current Conditions -  °F | °C
As of 3:00 PM on Friday 19 Dec 2014 (Local Time) from YPDN Reporting Station
Broken Clouds Broken Clouds  
Wind Chill: 93°   Ceiling: 30000
Heat Index: 105°   Visibility: 6mi
Dew Point: 75°   Wind: 15mph
Humidity: 56%   Direction: 310°NW
Pressure: 29.71"   Gusts: NA
Location:  11.15°S, 132.13°E
Report Text: YPDN 190600Z 31013KT 9999 FEW033TCU BKN300 34/24 Q1006
Loading
Personal Weather Stations






























Interactive Weather Map New forecast layout! Learn more

10-Day Weather Forecast

Advertisements
Track Severe Weather on mobile